sensor_id;sensor_type;location;lat;lon;timestamp;temperature;humidity
22288;DHT22;11312;51.464;6.968;2022-11-20T00:00:29;-1.00;99.90
22288;DHT22;11312;51.464;6.968;2022-11-20T00:02:54;-1.00;99.90
22288;DHT22;11312;51.464;6.968;2022-11-20T00:05:20;-1.10;99.90
22288;DHT22;11312;51.464;6.968;2022-11-20T00:07:46;-1.10;99.90
22288;DHT22;11312;51.464;6.968;2022-11-20T00:10:12;-1.00;99.90
22288;DHT22;11312;51.464;6.968;2022-11-20T00:12:37;-1.00;99.90
22288;DHT22;11312;51.464;6.968;2022-11-20T00:15:04;-1.10;99.90
22288;DHT22;11312;51.464;6.968;2022-11-20T00:17:29;-1.10;99.90
22288;DHT22;11312;51.464;6.968;2022-11-20T00:19:55;-1.10;99.90
22288;DHT22;11312;51.464;6.968;2022-11-20T00:22:20;-1.10;99.90
22288;DHT22;11312;51.464;6.968;2022-11-20T00:24:46;-1.00;99.90
22288;DHT22;11312;51.464;6.968;2022-11-20T00:27:12;-1.00;99.90
22288;DHT22;11312;51.464;6.968;2022-11-20T00:29:37;-1.00;99.90
22288;DHT22;11312;51.464;6.968;2022-11-20T00:32:03;-0.90;99.90
22288;DHT22;11312;51.464;6.968;2022-11-20T00:34:29;-1.00;99.90
22288;DHT22;11312;51.464;6.968;2022-11-20T00:36:54;-1.00;99.90
22288;DHT22;11312;51.464;6.968;2022-11-20T00:39:20;-1.10;99.90
22288;DHT22;11312;51.464;6.968;2022-11-20T00:41:46;-1.10;99.90
22288;DHT22;11312;51.464;6.968;2022-11-20T00:44:11;-1.10;99.90
22288;DHT22;11312;51.464;6.968;2022-11-20T00:46:37;-1.20;99.90
22288;DHT22;11312;51.464;6.968;2022-11-20T00:49:02;-1.30;99.90
22288;DHT22;11312;51.464;6.968;2022-11-20T00:51:28;-1.30;99.90
22288;DHT22;11312;51.464;6.968;2022-11-20T00:53:57;-1.40;99.90
22288;DHT22;11312;51.464;6.968;2022-11-20T00:56:24;-1.40;99.90
22288;DHT22;11312;51.464;6.968;2022-11-20T00:58:50;-1.30;99.90
22288;DHT22;11312;51.464;6.968;2022-11-20T01:01:18;-1.30;99.90
22288;DHT22;11312;51.464;6.968;2022-11-20T01:03:46;-1.30;99.90
22288;DHT22;11312;51.464;6.968;2022-11-20T01:06:24;-1.30;99.90
22288;DHT22;11312;51.464;6.968;2022-11-20T01:08:53;-1.20;99.90
22288;DHT22;11312;51.464;6.968;2022-11-20T01:11:22;-1.20;99.90
22288;DHT22;11312;51.464;6.968;2022-11-20T01:13:49;-1.40;99.90
22288;DHT22;11312;51.464;6.968;2022-11-20T01:16:19;-1.30;99.90
22288;DHT22;11312;51.464;6.968;2022-11-20T01:18:49;-1.30;99.90
22288;DHT22;11312;51.464;6.968;2022-11-20T01:21:18;-1.20;99.90
22288;DHT22;11312;51.464;6.968;2022-11-20T01:23:45;-1.20;99.90
22288;DHT22;11312;51.464;6.968;2022-11-20T01:26:13;-1.10;99.90
22288;DHT22;11312;51.464;6.968;2022-11-20T01:28:39;-1.10;99.90
22288;DHT22;11312;51.464;6.968;2022-11-20T01:31:13;-1.00;99.90
22288;DHT22;11312;51.464;6.968;2022-11-20T01:33:40;-1.00;99.90
22288;DHT22;11312;51.464;6.968;2022-11-20T01:36:06;-1.00;99.90
22288;DHT22;11312;51.464;6.968;2022-11-20T01:38:32;-0.90;99.90
22288;DHT22;11312;51.464;6.968;2022-11-20T01:40:58;-0.80;99.90
22288;DHT22;11312;51.464;6.968;2022-11-20T01:43:24;-0.90;99.90
22288;DHT22;11312;51.464;6.968;2022-11-20T01:46:13;-0.90;99.90
22288;DHT22;11312;51.464;6.968;2022-11-20T01:53:57;-1.10;99.90
22288;DHT22;11312;51.464;6.968;2022-11-20T01:56:25;-1.00;99.90
22288;DHT22;11312;51.464;6.968;2022-11-20T01:58:55;-1.20;99.90
22288;DHT22;11312;51.464;6.968;2022-11-20T02:01:22;-1.10;99.90
22288;DHT22;11312;51.464;6.968;2022-11-20T02:03:49;-1.30;99.90
22288;DHT22;11312;51.464;6.968;2022-11-20T02:06:49;-1.40;99.90
22288;DHT22;11312;51.464;6.968;2022-11-20T02:09:14;-1.50;99.90
22288;DHT22;11312;51.464;6.968;2022-11-20T02:11:40;-1.40;99.90
22288;DHT22;11312;51.464;6.968;2022-11-20T02:14:06;-1.30;99.90
22288;DHT22;11312;51.464;6.968;2022-11-20T02:16:36;-1.20;99.90
22288;DHT22;11312;51.464;6.968;2022-11-20T02:19:04;-1.10;99.90
22288;DHT22;11312;51.464;6.968;2022-11-20T02:21:36;-0.90;99.90
22288;DHT22;11312;51.464;6.968;2022-11-20T02:24:03;-0.80;99.90
22288;DHT22;11312;51.464;6.968;2022-11-20T02:26:32;-0.90;99.90
22288;DHT22;11312;51.464;6.968;2022-11-20T02:28:59;-0.70;99.90
22288;DHT22;11312;51.464;6.968;2022-11-20T02:31:25;-0.60;99.90
22288;DHT22;11312;51.464;6.968;2022-11-20T02:33:57;-0.60;99.90
22288;DHT22;11312;51.464;6.968;2022-11-20T02:36:28;-0.70;99.90
22288;DHT22;11312;51.464;6.968;2022-11-20T02:38:55;-0.60;99.90
22288;DHT22;11312;51.464;6.968;2022-11-20T02:41:21;-0.60;99.90
22288;DHT22;11312;51.464;6.968;2022-11-20T02:43:47;-0.50;99.90
22288;DHT22;11312;51.464;6.968;2022-11-20T02:46:13;-0.40;99.90
22288;DHT22;11312;51.464;6.968;2022-11-20T02:48:39;-0.40;99.90
22288;DHT22;11312;51.464;6.968;2022-11-20T02:51:05;-0.20;99.90
22288;DHT22;11312;51.464;6.968;2022-11-20T02:53:30;-0.30;99.90
22288;DHT22;11312;51.464;6.968;2022-11-20T02:55:56;-0.40;99.90
22288;DHT22;11312;51.464;6.968;2022-11-20T02:58:21;-0.40;99.90
22288;DHT22;11312;51.464;6.968;2022-11-20T03:00:47;-0.30;99.90
22288;DHT22;11312;51.464;6.968;2022-11-20T03:03:13;-0.40;99.90
22288;DHT22;11312;51.464;6.968;2022-11-20T03:05:38;-0.30;99.90
22288;DHT22;11312;51.464;6.968;2022-11-20T03:08:04;-0.20;99.90
22288;DHT22;11312;51.464;6.968;2022-11-20T03:10:29;-0.20;99.90
22288;DHT22;11312;51.464;6.968;2022-11-20T03:12:55;-0.20;99.90
22288;DHT22;11312;51.464;6.968;2022-11-20T03:15:24;-0.20;99.90
22288;DHT22;11312;51.464;6.968;2022-11-20T03:17:53;-0.10;99.90
22288;DHT22;11312;51.464;6.968;2022-11-20T03:20:20;-0.20;99.90
22288;DHT22;11312;51.464;6.968;2022-11-20T03:22:45;-0.10;99.90
22288;DHT22;11312;51.464;6.968;2022-11-20T03:25:11;-0.30;99.90
22288;DHT22;11312;51.464;6.968;2022-11-20T03:27:37;-0.30;99.90
22288;DHT22;11312;51.464;6.968;2022-11-20T03:30:03;-0.30;99.90
22288;DHT22;11312;51.464;6.968;2022-11-20T03:32:29;-0.20;99.90
22288;DHT22;11312;51.464;6.968;2022-11-20T03:34:54;-0.30;99.90
22288;DHT22;11312;51.464;6.968;2022-11-20T03:37:20;-0.30;99.90
22288;DHT22;11312;51.464;6.968;2022-11-20T03:39:45;-0.20;99.90
22288;DHT22;11312;51.464;6.968;2022-11-20T03:42:11;-0.20;99.90
22288;DHT22;11312;51.464;6.968;2022-11-20T03:44:55;-0.10;99.90
22288;DHT22;11312;51.464;6.968;2022-11-20T03:47:21;-0.10;99.90
22288;DHT22;11312;51.464;6.968;2022-11-20T03:49:46;-0.20;99.90
22288;DHT22;11312;51.464;6.968;2022-11-20T03:52:12;-0.10;99.90
22288;DHT22;11312;51.464;6.968;2022-11-20T03:54:37;-0.30;99.90
22288;DHT22;11312;51.464;6.968;2022-11-20T03:57:03;-0.20;99.90
22288;DHT22;11312;51.464;6.968;2022-11-20T03:59:29;-0.20;99.90
22288;DHT22;11312;51.464;6.968;2022-11-20T04:01:54;-0.20;99.90
22288;DHT22;11312;51.464;6.968;2022-11-20T04:04:20;-0.20;99.90
22288;DHT22;11312;51.464;6.968;2022-11-20T04:06:45;-0.10;99.90
22288;DHT22;11312;51.464;6.968;2022-11-20T04:09:11;-0.10;99.90
22288;DHT22;11312;51.464;6.968;2022-11-20T04:11:39;-0.10;99.90
22288;DHT22;11312;51.464;6.968;2022-11-20T04:14:11;-0.10;99.90
22288;DHT22;11312;51.464;6.968;2022-11-20T04:16:37;0.00;99.90
22288;DHT22;11312;51.464;6.968;2022-11-20T04:19:05;0.00;99.90
22288;DHT22;11312;51.464;6.968;2022-11-20T04:21:31;0.10;99.90
22288;DHT22;11312;51.464;6.968;2022-11-20T04:23:57;0.10;99.90
22288;DHT22;11312;51.464;6.968;2022-11-20T04:26:25;0.10;99.90
22288;DHT22;11312;51.464;6.968;2022-11-20T04:28:51;0.20;99.90
22288;DHT22;11312;51.464;6.968;2022-11-20T04:31:22;0.10;99.90
22288;DHT22;11312;51.464;6.968;2022-11-20T04:33:48;-0.10;99.90
22288;DHT22;11312;51.464;6.968;2022-11-20T04:36:22;-0.10;99.90
22288;DHT22;11312;51.464;6.968;2022-11-20T04:38:56;-0.10;99.90
22288;DHT22;11312;51.464;6.968;2022-11-20T04:41:23;-0.30;99.90
22288;DHT22;11312;51.464;6.968;2022-11-20T04:43:51;-0.20;99.90
22288;DHT22;11312;51.464;6.968;2022-11-20T04:46:18;-0.30;99.90
22288;DHT22;11312;51.464;6.968;2022-11-20T04:48:44;-0.60;99.90
22288;DHT22;11312;51.464;6.968;2022-11-20T04:51:09;-0.40;99.90
22288;DHT22;11312;51.464;6.968;2022-11-20T04:53:35;-0.40;99.90
22288;DHT22;11312;51.464;6.968;2022-11-20T04:56:06;-0.40;99.90
22288;DHT22;11312;51.464;6.968;2022-11-20T04:58:32;-0.30;99.90
22288;DHT22;11312;51.464;6.968;2022-11-20T05:01:02;-0.30;99.90
22288;DHT22;11312;51.464;6.968;2022-11-20T05:03:28;-0.10;99.90
22288;DHT22;11312;51.464;6.968;2022-11-20T05:05:54;-0.30;99.90
22288;DHT22;11312;51.464;6.968;2022-11-20T05:08:19;-0.20;99.90
22288;DHT22;11312;51.464;6.968;2022-11-20T05:10:45;0.10;99.90
22288;DHT22;11312;51.464;6.968;2022-11-20T05:13:11;0.00;99.90
22288;DHT22;11312;51.464;6.968;2022-11-20T05:15:37;0.00;99.90
22288;DHT22;11312;51.464;6.968;2022-11-20T05:18:02;0.00;99.90
22288;DHT22;11312;51.464;6.968;2022-11-20T05:20:28;-0.10;99.90
22288;DHT22;11312;51.464;6.968;2022-11-20T05:22:56;0.10;99.90
22288;DHT22;11312;51.464;6.968;2022-11-20T05:25:22;0.30;99.90
22288;DHT22;11312;51.464;6.968;2022-11-20T05:27:48;0.30;99.90
22288;DHT22;11312;51.464;6.968;2022-11-20T05:30:14;0.30;99.90
22288;DHT22;11312;51.464;6.968;2022-11-20T05:32:40;0.30;99.90
22288;DHT22;11312;51.464;6.968;2022-11-20T05:35:06;0.20;99.90
22288;DHT22;11312;51.464;6.968;2022-11-20T05:37:31;0.20;99.90
22288;DHT22;11312;51.464;6.968;2022-11-20T05:39:57;0.20;99.90
22288;DHT22;11312;51.464;6.968;2022-11-20T05:42:23;0.20;99.90
22288;DHT22;11312;51.464;6.968;2022-11-20T05:44:58;0.00;99.90
22288;DHT22;11312;51.464;6.968;2022-11-20T05:47:24;0.20;99.90
22288;DHT22;11312;51.464;6.968;2022-11-20T05:49:50;0.10;99.90
22288;DHT22;11312;51.464;6.968;2022-11-20T05:52:16;0.10;99.90
22288;DHT22;11312;51.464;6.968;2022-11-20T05:54:41;0.10;99.90
22288;DHT22;11312;51.464;6.968;2022-11-20T05:57:07;0.20;99.90
22288;DHT22;11312;51.464;6.968;2022-11-20T05:59:32;0.20;99.90
22288;DHT22;11312;51.464;6.968;2022-11-20T06:01:58;0.10;99.90
22288;DHT22;11312;51.464;6.968;2022-11-20T06:04:24;0.00;99.90
22288;DHT22;11312;51.464;6.968;2022-11-20T06:06:49;0.00;99.90
22288;DHT22;11312;51.464;6.968;2022-11-20T06:09:15;0.00;99.90
22288;DHT22;11312;51.464;6.968;2022-11-20T06:11:40;-0.10;99.90
22288;DHT22;11312;51.464;6.968;2022-11-20T06:14:06;-0.10;99.90
22288;DHT22;11312;51.464;6.968;2022-11-20T06:16:32;-0.10;99.90
22288;DHT22;11312;51.464;6.968;2022-11-20T06:18:57;0.00;99.90
22288;DHT22;11312;51.464;6.968;2022-11-20T06:21:23;-0.10;99.90
22288;DHT22;11312;51.464;6.968;2022-11-20T06:23:51;0.00;99.90
22288;DHT22;11312;51.464;6.968;2022-11-20T06:26:20;0.00;99.90
22288;DHT22;11312;51.464;6.968;2022-11-20T06:28:46;0.10;99.90
22288;DHT22;11312;51.464;6.968;2022-11-20T06:31:14;0.00;99.90
22288;DHT22;11312;51.464;6.968;2022-11-20T06:33:40;0.10;99.90
22288;DHT22;11312;51.464;6.968;2022-11-20T06:36:06;0.00;99.90
22288;DHT22;11312;51.464;6.968;2022-11-20T06:38:32;0.10;99.90
22288;DHT22;11312;51.464;6.968;2022-11-20T06:40:57;0.00;99.90
22288;DHT22;11312;51.464;6.968;2022-11-20T06:43:24;-0.20;99.90
22288;DHT22;11312;51.464;6.968;2022-11-20T06:45:57;-0.20;99.90
22288;DHT22;11312;51.464;6.968;2022-11-20T06:48:24;-0.20;99.90
22288;DHT22;11312;51.464;6.968;2022-11-20T06:50:51;-0.20;99.90
22288;DHT22;11312;51.464;6.968;2022-11-20T06:53:16;-0.30;99.90
22288;DHT22;11312;51.464;6.968;2022-11-20T06:55:44;-0.40;99.90
22288;DHT22;11312;51.464;6.968;2022-11-20T06:58:10;-0.30;99.90
22288;DHT22;11312;51.464;6.968;2022-11-20T07:00:35;-0.40;99.90
22288;DHT22;11312;51.464;6.968;2022-11-20T07:03:09;-0.40;99.90
22288;DHT22;11312;51.464;6.968;2022-11-20T07:05:36;-0.30;99.90
22288;DHT22;11312;51.464;6.968;2022-11-20T07:08:02;-0.30;99.90
22288;DHT22;11312;51.464;6.968;2022-11-20T07:10:28;-0.30;99.90
22288;DHT22;11312;51.464;6.968;2022-11-20T07:12:54;-0.30;99.90
22288;DHT22;11312;51.464;6.968;2022-11-20T07:15:21;-0.30;99.90
22288;DHT22;11312;51.464;6.968;2022-11-20T07:17:47;-0.20;99.90
22288;DHT22;11312;51.464;6.968;2022-11-20T07:20:13;-0.20;99.90
22288;DHT22;11312;51.464;6.968;2022-11-20T07:22:39;-0.20;99.90
22288;DHT22;11312;51.464;6.968;2022-11-20T07:25:06;-0.20;99.90
22288;DHT22;11312;51.464;6.968;2022-11-20T07:27:32;0.00;99.90
22288;DHT22;11312;51.464;6.968;2022-11-20T07:29:57;0.10;99.90
22288;DHT22;11312;51.464;6.968;2022-11-20T07:32:23;0.00;99.90
22288;DHT22;11312;51.464;6.968;2022-11-20T07:34:49;0.00;99.90
22288;DHT22;11312;51.464;6.968;2022-11-20T07:37:15;0.10;99.90
22288;DHT22;11312;51.464;6.968;2022-11-20T07:39:42;0.20;99.90
22288;DHT22;11312;51.464;6.968;2022-11-20T07:42:08;0.20;99.90
22288;DHT22;11312;51.464;6.968;2022-11-20T07:44:34;0.50;99.90
22288;DHT22;11312;51.464;6.968;2022-11-20T07:47:00;0.70;99.90
22288;DHT22;11312;51.464;6.968;2022-11-20T07:49:26;0.60;99.90
22288;DHT22;11312;51.464;6.968;2022-11-20T07:51:52;0.50;99.90
22288;DHT22;11312;51.464;6.968;2022-11-20T07:54:21;0.40;99.90
22288;DHT22;11312;51.464;6.968;2022-11-20T07:56:47;0.30;99.90
22288;DHT22;11312;51.464;6.968;2022-11-20T07:59:13;0.40;99.90
22288;DHT22;11312;51.464;6.968;2022-11-20T08:01:39;0.40;99.90
22288;DHT22;11312;51.464;6.968;2022-11-20T08:04:05;0.20;99.90
22288;DHT22;11312;51.464;6.968;2022-11-20T08:06:31;0.20;99.90
22288;DHT22;11312;51.464;6.968;2022-11-20T08:08:57;0.10;99.90
22288;DHT22;11312;51.464;6.968;2022-11-20T08:11:22;0.30;99.90
22288;DHT22;11312;51.464;6.968;2022-11-20T08:14:06;0.20;99.90
22288;DHT22;11312;51.464;6.968;2022-11-20T08:16:48;0.00;99.90
22288;DHT22;11312;51.464;6.968;2022-11-20T08:19:16;0.20;99.90
22288;DHT22;11312;51.464;6.968;2022-11-20T08:21:43;0.30;99.90
22288;DHT22;11312;51.464;6.968;2022-11-20T08:24:09;0.40;99.90
22288;DHT22;11312;51.464;6.968;2022-11-20T08:26:37;0.40;99.90
22288;DHT22;11312;51.464;6.968;2022-11-20T08:29:03;0.80;99.90
22288;DHT22;11312;51.464;6.968;2022-11-20T08:31:30;0.80;99.90
22288;DHT22;11312;51.464;6.968;2022-11-20T08:33:56;1.00;99.90
22288;DHT22;11312;51.464;6.968;2022-11-20T08:36:23;1.10;99.90
22288;DHT22;11312;51.464;6.968;2022-11-20T08:38:53;1.40;99.90
22288;DHT22;11312;51.464;6.968;2022-11-20T08:41:19;1.50;99.90
22288;DHT22;11312;51.464;6.968;2022-11-20T08:43:59;1.80;99.90
22288;DHT22;11312;51.464;6.968;2022-11-20T08:46:27;1.80;99.90
22288;DHT22;11312;51.464;6.968;2022-11-20T08:48:53;2.00;99.90
22288;DHT22;11312;51.464;6.968;2022-11-20T08:51:19;2.10;99.90
22288;DHT22;11312;51.464;6.968;2022-11-20T08:53:46;2.20;99.90
22288;DHT22;11312;51.464;6.968;2022-11-20T08:56:14;2.40;99.90
22288;DHT22;11312;51.464;6.968;2022-11-20T08:58:39;2.20;99.90
22288;DHT22;11312;51.464;6.968;2022-11-20T09:01:05;2.10;99.90
22288;DHT22;11312;51.464;6.968;2022-11-20T09:03:31;2.10;99.90
22288;DHT22;11312;51.464;6.968;2022-11-20T09:06:01;2.20;99.90
22288;DHT22;11312;51.464;6.968;2022-11-20T09:08:28;2.30;99.90
22288;DHT22;11312;51.464;6.968;2022-11-20T09:10:55;2.30;99.90
22288;DHT22;11312;51.464;6.968;2022-11-20T09:13:22;2.50;99.90
22288;DHT22;11312;51.464;6.968;2022-11-20T09:15:59;2.60;99.90
22288;DHT22;11312;51.464;6.968;2022-11-20T09:18:26;2.80;99.90
22288;DHT22;11312;51.464;6.968;2022-11-20T09:20:57;3.00;99.90
22288;DHT22;11312;51.464;6.968;2022-11-20T09:23:23;3.10;99.90
22288;DHT22;11312;51.464;6.968;2022-11-20T09:25:48;3.30;99.90
22288;DHT22;11312;51.464;6.968;2022-11-20T09:28:14;3.40;99.90
22288;DHT22;11312;51.464;6.968;2022-11-20T09:30:39;3.80;99.90
22288;DHT22;11312;51.464;6.968;2022-11-20T09:33:05;4.20;99.90
22288;DHT22;11312;51.464;6.968;2022-11-20T09:35:32;4.50;15.70
22288;DHT22;11312;51.464;6.968;2022-11-20T09:37:58;4.40;1.00
22288;DHT22;11312;51.464;6.968;2022-11-20T09:40:26;4.60;1.00
22288;DHT22;11312;51.464;6.968;2022-11-20T09:42:59;4.80;99.90
22288;DHT22;11312;51.464;6.968;2022-11-20T09:48:39;4.70;1.00
22288;DHT22;11312;51.464;6.968;2022-11-20T09:56:38;4.80;99.90
22288;DHT22;11312;51.464;6.968;2022-11-20T09:59:06;4.90;1.00
22288;DHT22;11312;51.464;6.968;2022-11-20T10:01:35;4.70;99.90
22288;DHT22;11312;51.464;6.968;2022-11-20T10:04:10;4.60;99.90
22288;DHT22;11312;51.464;6.968;2022-11-20T10:09:28;4.80;99.90
22288;DHT22;11312;51.464;6.968;2022-11-20T10:18:38;4.30;99.90
22288;DHT22;11312;51.464;6.968;2022-11-20T10:21:26;4.50;1.00
22288;DHT22;11312;51.464;6.968;2022-11-20T10:24:14;4.60;99.90
22288;DHT22;11312;51.464;6.968;2022-11-20T10:26:59;4.90;99.90
22288;DHT22;11312;51.464;6.968;2022-11-20T10:29:33;5.40;1.00
22288;DHT22;11312;51.464;6.968;2022-11-20T10:32:07;5.50;52.60
22288;DHT22;11312;51.464;6.968;2022-11-20T10:34:58;5.40;1.00
22288;DHT22;11312;51.464;6.968;2022-11-20T10:37:27;5.60;1.00
22288;DHT22;11312;51.464;6.968;2022-11-20T10:48:17;5.70;99.90
22288;DHT22;11312;51.464;6.968;2022-11-20T10:50:54;6.00;99.90
22288;DHT22;11312;51.464;6.968;2022-11-20T10:53:45;5.90;99.90
22288;DHT22;11312;51.464;6.968;2022-11-20T10:56:23;5.70;99.90
22288;DHT22;11312;51.464;6.968;2022-11-20T10:59:04;5.60;1.00
22288;DHT22;11312;51.464;6.968;2022-11-20T11:01:40;5.30;99.90
22288;DHT22;11312;51.464;6.968;2022-11-20T11:04:35;5.30;99.90
22288;DHT22;11312;51.464;6.968;2022-11-20T11:07:33;5.20;1.00
22288;DHT22;11312;51.464;6.968;2022-11-20T11:10:01;5.30;1.00
22288;DHT22;11312;51.464;6.968;2022-11-20T11:12:43;5.40;1.00
22288;DHT22;11312;51.464;6.968;2022-11-20T11:15:14;5.40;15.20
22288;DHT22;11312;51.464;6.968;2022-11-20T11:17:46;5.60;1.00
22288;DHT22;11312;51.464;6.968;2022-11-20T11:20:17;5.60;1.00
22288;DHT22;11312;51.464;6.968;2022-11-20T11:22:49;5.70;1.00
22288;DHT22;11312;51.464;6.968;2022-11-20T11:25:25;5.80;1.00
22288;DHT22;11312;51.464;6.968;2022-11-20T11:27:52;5.90;1.00
22288;DHT22;11312;51.464;6.968;2022-11-20T11:30:19;5.70;99.90
22288;DHT22;11312;51.464;6.968;2022-11-20T11:32:45;5.60;99.90
22288;DHT22;11312;51.464;6.968;2022-11-20T11:35:27;5.60;1.00
22288;DHT22;11312;51.464;6.968;2022-11-20T11:38:01;5.60;1.00
22288;DHT22;11312;51.464;6.968;2022-11-20T11:40:28;5.60;99.90
22288;DHT22;11312;51.464;6.968;2022-11-20T11:43:03;5.50;99.90
22288;DHT22;11312;51.464;6.968;2022-11-20T11:45:29;5.40;99.90
22288;DHT22;11312;51.464;6.968;2022-11-20T11:47:58;5.40;1.00
22288;DHT22;11312;51.464;6.968;2022-11-20T11:50:27;5.30;1.00
22288;DHT22;11312;51.464;6.968;2022-11-20T11:55:58;5.40;99.90
22288;DHT22;11312;51.464;6.968;2022-11-20T11:58:44;5.40;1.00
22288;DHT22;11312;51.464;6.968;2022-11-20T12:01:32;5.40;99.90
22288;DHT22;11312;51.464;6.968;2022-11-20T12:04:02;5.40;1.00
22288;DHT22;11312;51.464;6.968;2022-11-20T12:06:30;5.40;1.00
22288;DHT22;11312;51.464;6.968;2022-11-20T12:11:24;5.20;99.90
22288;DHT22;11312;51.464;6.968;2022-11-20T12:14:17;5.10;1.00
22288;DHT22;11312;51.464;6.968;2022-11-20T12:16:45;5.10;1.00
22288;DHT22;11312;51.464;6.968;2022-11-20T12:19:13;5.10;99.90
22288;DHT22;11312;51.464;6.968;2022-11-20T12:21:53;5.00;1.00
22288;DHT22;11312;51.464;6.968;2022-11-20T12:27:05;4.90;1.00
22288;DHT22;11312;51.464;6.968;2022-11-20T12:29:58;4.90;1.00
22288;DHT22;11312;51.464;6.968;2022-11-20T12:33:18;4.80;1.00
22288;DHT22;11312;51.464;6.968;2022-11-20T12:38:30;4.90;1.00
22288;DHT22;11312;51.464;6.968;2022-11-20T12:44:32;5.00;82.00
22288;DHT22;11312;51.464;6.968;2022-11-20T12:50:13;5.10;1.00
22288;DHT22;11312;51.464;6.968;2022-11-20T12:58:28;5.00;1.00
22288;DHT22;11312;51.464;6.968;2022-11-20T13:06:52;5.10;99.90
22288;DHT22;11312;51.464;6.968;2022-11-20T13:09:20;5.10;99.90
22288;DHT22;11312;51.464;6.968;2022-11-20T13:15:11;5.10;1.00
22288;DHT22;11312;51.464;6.968;2022-11-20T13:17:58;5.00;99.90
22288;DHT22;11312;51.464;6.968;2022-11-20T13:20:24;5.10;99.90
22288;DHT22;11312;51.464;6.968;2022-11-20T13:22:55;5.10;99.90
22288;DHT22;11312;51.464;6.968;2022-11-20T13:25:38;5.10;1.00
22288;DHT22;11312;51.464;6.968;2022-11-20T13:30:47;5.00;99.90
22288;DHT22;11312;51.464;6.968;2022-11-20T13:33:32;5.00;99.90
22288;DHT22;11312;51.464;6.968;2022-11-20T13:38:26;5.10;1.00
22288;DHT22;11312;51.464;6.968;2022-11-20T13:46:00;5.10;1.00
22288;DHT22;11312;51.464;6.968;2022-11-20T13:48:31;5.20;99.90
22288;DHT22;11312;51.464;6.968;2022-11-20T14:02:01;4.60;1.00
22288;DHT22;11312;51.464;6.968;2022-11-20T14:04:33;5.00;99.90
22288;DHT22;11312;51.464;6.968;2022-11-20T14:07:01;5.00;1.00
22288;DHT22;11312;51.464;6.968;2022-11-20T14:09:28;5.00;1.00
22288;DHT22;11312;51.464;6.968;2022-11-20T14:11:54;5.00;1.00
22288;DHT22;11312;51.464;6.968;2022-11-20T14:14:25;5.10;1.00
22288;DHT22;11312;51.464;6.968;2022-11-20T14:17:29;5.10;1.00
22288;DHT22;11312;51.464;6.968;2022-11-20T14:19:52;5.00;38.20
22288;DHT22;11312;51.464;6.968;2022-11-20T14:24:44;5.00;99.90
22288;DHT22;11312;51.464;6.968;2022-11-20T14:27:18;5.00;77.60
22288;DHT22;11312;51.464;6.968;2022-11-20T14:29:46;5.00;50.90
22288;DHT22;11312;51.464;6.968;2022-11-20T14:32:16;5.00;99.50
22288;DHT22;11312;51.464;6.968;2022-11-20T14:34:44;5.00;99.90
22288;DHT22;11312;51.464;6.968;2022-11-20T14:37:13;4.90;59.60
22288;DHT22;11312;51.464;6.968;2022-11-20T14:39:49;4.90;99.90
22288;DHT22;11312;51.464;6.968;2022-11-20T14:42:17;4.90;99.90
22288;DHT22;11312;51.464;6.968;2022-11-20T14:44:44;4.90;99.90
22288;DHT22;11312;51.464;6.968;2022-11-20T14:47:12;4.90;99.90
22288;DHT22;11312;51.464;6.968;2022-11-20T14:49:39;4.90;99.90
22288;DHT22;11312;51.464;6.968;2022-11-20T14:52:23;4.80;99.90
22288;DHT22;11312;51.464;6.968;2022-11-20T14:54:53;4.80;99.90
22288;DHT22;11312;51.464;6.968;2022-11-20T14:57:30;4.70;99.90
22288;DHT22;11312;51.464;6.968;2022-11-20T15:02:42;4.80;99.90
22288;DHT22;11312;51.464;6.968;2022-11-20T15:05:08;4.80;99.90
22288;DHT22;11312;51.464;6.968;2022-11-20T15:07:40;4.80;99.90
22288;DHT22;11312;51.464;6.968;2022-11-20T15:10:24;4.80;99.90
22288;DHT22;11312;51.464;6.968;2022-11-20T15:12:52;4.80;99.90
22288;DHT22;11312;51.464;6.968;2022-11-20T15:15:38;4.70;99.90
22288;DHT22;11312;51.464;6.968;2022-11-20T15:21:02;4.80;99.90
22288;DHT22;11312;51.464;6.968;2022-11-20T15:23:29;4.80;99.90
22288;DHT22;11312;51.464;6.968;2022-11-20T15:25:55;4.80;99.90
22288;DHT22;11312;51.464;6.968;2022-11-20T15:28:35;4.80;99.90
22288;DHT22;11312;51.464;6.968;2022-11-20T15:31:03;4.80;99.90
22288;DHT22;11312;51.464;6.968;2022-11-20T15:33:30;4.80;99.90
22288;DHT22;11312;51.464;6.968;2022-11-20T15:35:57;4.70;99.90
22288;DHT22;11312;51.464;6.968;2022-11-20T15:38:23;4.70;99.90
22288;DHT22;11312;51.464;6.968;2022-11-20T15:40:48;4.70;99.90
22288;DHT22;11312;51.464;6.968;2022-11-20T15:43:14;4.70;99.90
22288;DHT22;11312;51.464;6.968;2022-11-20T15:48:16;4.50;99.90
22288;DHT22;11312;51.464;6.968;2022-11-20T15:50:56;4.50;99.90
22288;DHT22;11312;51.464;6.968;2022-11-20T15:53:23;4.60;99.90
22288;DHT22;11312;51.464;6.968;2022-11-20T15:55:49;4.60;99.90
22288;DHT22;11312;51.464;6.968;2022-11-20T15:58:14;4.70;99.90
22288;DHT22;11312;51.464;6.968;2022-11-20T16:00:42;4.70;99.90
22288;DHT22;11312;51.464;6.968;2022-11-20T16:03:12;4.70;99.90
22288;DHT22;11312;51.464;6.968;2022-11-20T16:05:39;4.70;99.90
22288;DHT22;11312;51.464;6.968;2022-11-20T16:08:05;4.60;99.90
22288;DHT22;11312;51.464;6.968;2022-11-20T16:10:30;4.70;99.90
22288;DHT22;11312;51.464;6.968;2022-11-20T16:12:56;4.70;99.90
22288;DHT22;11312;51.464;6.968;2022-11-20T16:15:40;4.70;99.90
22288;DHT22;11312;51.464;6.968;2022-11-20T16:18:17;4.70;99.90
22288;DHT22;11312;51.464;6.968;2022-11-20T16:20:45;4.80;99.90
22288;DHT22;11312;51.464;6.968;2022-11-20T16:23:11;4.70;99.90
22288;DHT22;11312;51.464;6.968;2022-11-20T16:25:37;4.70;99.90
22288;DHT22;11312;51.464;6.968;2022-11-20T16:28:03;4.70;99.90
22288;DHT22;11312;51.464;6.968;2022-11-20T16:30:31;4.70;99.90
22288;DHT22;11312;51.464;6.968;2022-11-20T16:32:57;4.60;99.90
22288;DHT22;11312;51.464;6.968;2022-11-20T16:35:23;4.60;99.90
22288;DHT22;11312;51.464;6.968;2022-11-20T16:37:50;4.70;99.90
22288;DHT22;11312;51.464;6.968;2022-11-20T16:40:16;4.70;99.90
22288;DHT22;11312;51.464;6.968;2022-11-20T16:42:41;4.60;99.90
22288;DHT22;11312;51.464;6.968;2022-11-20T16:45:07;4.70;99.90
22288;DHT22;11312;51.464;6.968;2022-11-20T16:47:34;4.70;99.90
22288;DHT22;11312;51.464;6.968;2022-11-20T16:50:00;4.70;99.90
22288;DHT22;11312;51.464;6.968;2022-11-20T16:52:27;4.70;99.90
22288;DHT22;11312;51.464;6.968;2022-11-20T16:54:52;4.80;99.90
22288;DHT22;11312;51.464;6.968;2022-11-20T16:57:18;4.80;99.90
22288;DHT22;11312;51.464;6.968;2022-11-20T16:59:44;4.90;99.90
22288;DHT22;11312;51.464;6.968;2022-11-20T17:02:09;5.00;99.90
22288;DHT22;11312;51.464;6.968;2022-11-20T17:04:36;5.00;99.90
22288;DHT22;11312;51.464;6.968;2022-11-20T17:07:01;5.00;99.90
22288;DHT22;11312;51.464;6.968;2022-11-20T17:09:28;5.00;99.90
22288;DHT22;11312;51.464;6.968;2022-11-20T17:11:53;5.00;99.90
22288;DHT22;11312;51.464;6.968;2022-11-20T17:14:19;5.00;99.90
22288;DHT22;11312;51.464;6.968;2022-11-20T17:16:44;5.10;99.90
22288;DHT22;11312;51.464;6.968;2022-11-20T17:19:10;5.10;99.90
22288;DHT22;11312;51.464;6.968;2022-11-20T17:21:37;5.20;99.90
22288;DHT22;11312;51.464;6.968;2022-11-20T17:24:06;5.20;99.90
22288;DHT22;11312;51.464;6.968;2022-11-20T17:26:32;5.20;99.90
22288;DHT22;11312;51.464;6.968;2022-11-20T17:29:00;5.20;99.90